• Join FlightAware (Why Join?)
  • Login
  • US Flag 
Rudolph Flight #1: Arrived! 
06:46PM EST


 

Airport Tracker/Info


-or-


 

Live Flight TrackerFlight Track Log ✈ UAL33 ✈ 15-Jul-2013 ✈ KIAH - KORD

Flight Track Log - Related Links

Times and Time Zones

All times are in EDT time to prevent confusion due to time zone crossing. See the UAL33 flight status page for this flight to view local times or setup timezone preferences in your user account.

Time Position Orientation Groundspeed Altitude Reporting Facility
EDT Latitude Longitude Course Direction KTS MPH feet Rate Location/Type
05:36PM 29.9780 -95.3020 95° East 161 185 700  Level FlightAware ADS-B
05:36PM 29.9790 -95.2958 79° East 164 189 1,000 2,700 Climbing FlightAware ADS-B
05:36PM 29.9802 -95.2928 65° Northeast 165 190 1,200 3,000 Climbing FlightAware ADS-B
05:36PM 29.9829 -95.2886 53° Northeast 171 197 1,500 2,400 Climbing FlightAware ADS-B
05:36PM 29.9851 -95.2864 41° Northeast 177 204 1,600 1,980 Climbing FlightAware ADS-B
05:36PM 29.9892 -95.2837 30° Northeast 186 214 1,800 2,160 Climbing FlightAware ADS-B
05:36PM 29.9944 -95.2817 18° North 199 229 2,000 1,980 Climbing FlightAware ADS-B
05:37PM 30.0095 -95.2786 10° North 230 265 2,500 1,620 Climbing FlightAware ADS-B
05:38PM 30.0777 -95.2632 11° North 272 313 4,000 2,160 Climbing FlightAware ADS-B
05:40PM 30.2373 -95.2211 14° North 299 344 9,300 2,820 Climbing FlightAware ADS-B
05:40PM 30.2845 -95.2076 14° North 307 353 11,600 3,720 Climbing FlightAware ADS-B
05:41PM 30.3308 -95.1946 14° North 332 382 13,400 3,000 Climbing FlightAware ADS-B
05:41PM 30.3791 -95.1810 14° North 361 415 14,800 3,120 Climbing FlightAware ADS-B
05:42PM 30.4515 -95.1575 18° North 375 432 17,300 2,880 Climbing FlightAware ADS-B
05:45PM 30.6990 -95.0064 28° Northeast 416 479 24,300 2,700 Climbing FlightAware ADS-B
05:45PM 30.7500 -94.9747 28° Northeast 416 479 25,600 2,400 Climbing FlightAware ADS-B
05:46PM 30.8026 -94.9418 28° Northeast 423 487 26,800 2,160 Climbing FlightAware ADS-B
05:46PM 30.8553 -94.9091 28° Northeast 431 496 27,800 1,860 Climbing FlightAware ADS-B
05:47PM 30.9641 -94.8412 28° Northeast 444 511 29,700 1,740 Climbing FlightAware ADS-B
05:49PM 31.1961 -94.6951 29° Northeast 467 537 33,300 1,620 Climbing FlightAware ADS-B
05:50PM 31.2528 -94.6552 31° Northeast 473 544 34,000 1,320 Climbing FlightAware ADS-B
05:50PM 31.3052 -94.6182 31° Northeast 478 550 34,600 1,320 Climbing FlightAware ADS-B
05:51PM 31.3632 -94.5776 31° Northeast 483 556 35,300 1,500 Climbing FlightAware ADS-B
05:52PM 31.4847 -94.4935 31° Northeast 482 555 37,000 960 Climbing FlightAware ADS-B
05:54PM 31.7210 -94.3295 31° Northeast 479 551 38,300 900 Climbing FlightAware ADS-B
05:54PM 31.7782 -94.2895 31° Northeast 471 542 39,300 1,020 Climbing FlightAware ADS-B
05:55PM 31.8620 -94.2307 31° Northeast 481 554 39,600 540 Climbing FlightAware ADS-B
05:57PM 32.1310 -94.0410 31° Northeast 491 565 41,000 420 Climbing FlightAware
05:58PM 32.1930 -93.9980 30° Northeast 491 565 41,000  Level FlightAware
05:59PM 32.2761 -93.9389 31° Northeast 485 558 41,000  Level FlightAware ADS-B
05:59PM 32.3681 -93.8735 31° Northeast 485 558 41,000  Level FlightAware ADS-B
06:01PM 32.5328 -93.7563 31° Northeast 486 559 41,000  Level FlightAware ADS-B
06:03PM 32.7932 -93.5699 31° Northeast 489 563 41,000  Level FlightAware ADS-B
06:06PM 33.1240 -93.3320 31° Northeast 503 579 41,000  Level FlightAware
06:07PM 33.2120 -93.2670 32° Northeast 501 577 41,000  Level FlightAware
06:07PM 33.2780 -93.2200 31° Northeast 501 577 41,000  Level FlightAware
06:08PM 33.3590 -93.1620 31° Northeast 501 577 41,000  Level FlightAware
06:09PM 33.4200 -93.1180 31° Northeast 501 577 41,000  Level FlightAware
06:10PM 33.5010 -93.0590 31° Northeast 501 577 41,000  Level FlightAware
06:10PM 33.5610 -93.0160 31° Northeast 501 577 41,000  Level FlightAware
06:11PM 33.6540 -92.9490 31° Northeast 501 577 41,000  Level FlightAware
06:12PM 33.7570 -92.8740 31° Northeast 501 577 41,000  Level FlightAware
06:13PM 33.8200 -92.8290 31° Northeast 501 577 41,000  Level FlightAware
06:13PM 33.9010 -92.7700 31° Northeast 501 577 41,000  Level FlightAware
06:14PM 33.9630 -92.7250 31° Northeast 501 577 41,000  Level FlightAware
06:15PM 34.0510 -92.6610 31° Northeast 501 577 41,000  Level FlightAware
06:16PM 34.1660 -92.5780 31° Northeast 501 577 41,000  Level FlightAware
06:20PM 34.7090 -92.1660 32° Northeast 495 570 41,000  Level FlightAware
06:20PM 34.7710 -92.1280 27° Northeast 495 570 41,000  Level FlightAware
06:21PM 34.8750 -92.0630 27° Northeast 495 570 41,000  Level FlightAware
06:22PM 34.9390 -92.0230 27° Northeast 495 570 41,000  Level FlightAware
06:23PM 35.0210 -91.9720 27° Northeast 495 570 41,000  Level FlightAware
06:23PM 35.1880 -92.0340 343° North 505 581 41,000  Level FlightAware
06:24PM 35.3100 -91.9990 13° North 506 582 41,000  Level FlightAware
06:24PM 35.3940 -91.9740 14° North 505 581 41,000  Level FlightAware
06:25PM 35.5100 -91.9400 13° North 505 581 41,000  Level FlightAware
06:26PM 35.6010 -91.9140 13° North 504 580 41,000  Level FlightAware
06:27PM 35.7000 -91.8850 13° North 500 575 41,000  Level FlightAware
06:27PM 35.7850 -91.8600 13° North 496 571 41,000  Level FlightAware
06:28PM 35.8890 -91.8290 14° North 496 571 41,000  Level FlightAware
06:29PM 35.9690 -91.8060 13° North 494 568 41,000  Level FlightAware
06:30PM 36.0760 -91.7740 14° North 491 565 41,000  Level FlightAware
06:30PM 36.1650 -91.7480 13° North 491 565 41,000  Level FlightAware
06:31PM 36.2520 -91.7220 14° North 491 565 41,000  Level FlightAware
06:31PM 36.3310 -91.6980 14° North 493 567 41,000  Level FlightAware
06:32PM 36.4260 -91.6700 13° North 492 566 41,000  Level FlightAware
06:33PM 36.5140 -91.6440 13° North 490 564 41,000  Level FlightAware
06:33PM 36.5990 -91.6180 14° North 493 567 41,000  Level FlightAware
06:34PM 36.6920 -91.5910 13° North 498 573 41,000  Level FlightAware
06:35PM 36.7810 -91.5640 14° North 499 574 41,000  Level FlightAware
06:36PM 36.8800 -91.5340 14° North 499 574 41,000  Level FlightAware
06:36PM 36.9780 -91.5040 14° North 501 577 41,000  Level FlightAware
06:37PM 37.0640 -91.4780 14° North 504 580 41,000  Level FlightAware
06:38PM 37.1710 -91.4460 13° North 505 581 41,000  Level FlightAware
06:38PM 37.2410 -91.4240 14° North 502 578 41,000  Level FlightAware
06:39PM 37.3350 -91.3950 14° North 498 573 41,000  Level FlightAware
06:40PM 37.4330 -91.3650 14° North 497 572 41,000  Level FlightAware
06:40PM 37.4950 -91.3460 14° North 498 573 41,000  Level FlightAware
06:41PM 37.5910 -91.3170 13° North 498 573 41,000  Level FlightAware
06:42PM 37.7230 -91.2760 14° North 499 574 41,000  Level FlightAware
06:43PM 37.8230 -91.2450 14° North 499 574 41,000  Level FlightAware
06:43PM 37.9150 -91.2160 14° North 494 568 41,000  Level FlightAware
06:44PM 38.0070 -91.1880 13° North 495 570 41,000  Level FlightAware
06:45PM 38.1080 -91.1580 13° North 495 570 41,000  Level FlightAware
06:46PM 38.2230 -91.1240 13° North 495 570 41,000  Level FlightAware
06:46PM 38.2920 -91.1040 13° North 495 570 41,000  Level FlightAware
06:47PM 38.4660 -91.0440 15° North 496 571 41,000  Level FlightAware
06:48PM 38.5630 -91.0150 13° North 496 571 41,000  Level FlightAware
06:49PM 38.6460 -90.9880 14° North 493 567 41,000  Level FlightAware
06:50PM 38.7490 -90.9420 19° North 494 568 41,000  Level FlightAware
06:50PM 38.8430 -90.8910 23° Northeast 492 566 41,000  Level FlightAware
06:51PM 38.9190 -90.8510 22° Northeast 492 566 41,000  Level FlightAware
06:52PM 39.0200 -90.7940 24° Northeast 496 571 41,000 -420 Level FlightAware
06:52PM 39.0900 -90.7560 23° Northeast 496 571 40,500 -1,200 Descending FlightAware
06:53PM 39.1860 -90.7130 19° North 500 575 39,500 -1,200 Descending FlightAware
06:54PM 39.2840 -90.7150 359° North 500 575 38,800 -1,200 Descending FlightAware
06:54PM 39.3550 -90.7280 352° North 499 574 38,000 -1,560 Descending FlightAware
06:55PM 39.4820 -90.7750 344° North 489 563 36,500 -1,860 Descending FlightAware
06:56PM 39.5610 -90.8190 337° Northwest 498 573 35,100 -1,080 Descending FlightAware
06:56PM 39.6400 -90.8640 336° Northwest 499 574 35,100 -120 Level FlightAware
06:57PM 39.7470 -90.9210 338° Northwest 494 568 35,000 -120 Descending FlightAware
06:58PM 39.8310 -90.9680 337° Northwest 493 567 35,000 -780 Level FlightAware
06:59PM 39.9210 -91.0140 339° North 496 571 34,000 -1,800 Descending FlightAware
06:59PM 39.9560 -91.0210 351° North 493 567 33,500 -900 Descending FlightAware
07:00PM 40.0440 -90.9850 17° North 486 559 33,000 -360 Descending FlightAware
07:01PM 40.1110 -90.9130 39° Northeast 472 543 33,000  Level FlightAware
07:01PM 40.1970 -90.8000 45° Northeast 478 550 33,000  Level FlightAware
07:02PM 40.2720 -90.7080 43° Northeast 479 551 33,000  Level FlightAware
07:03PM 40.3320 -90.6330 44° Northeast 476 548 33,000  Level FlightAware
07:03PM 40.3950 -90.5540 44° Northeast 473 544 33,000 -240 Level FlightAware
07:04PM 40.4660 -90.4660 43° Northeast 470 541 32,700 -480 Descending FlightAware
07:05PM 40.5270 -90.3900 43° Northeast 460 529 32,400 -480 Descending FlightAware
07:05PM 40.5960 -90.3040 43° Northeast 450 518 32,100 -540 Descending FlightAware
07:06PM 40.6450 -90.2420 44° Northeast 446 513 31,700 -600 Descending FlightAware
07:07PM 40.7160 -90.1520 44° Northeast 437 503 31,300 -600 Descending FlightAware
07:07PM 40.7750 -90.0790 43° Northeast 434 499 30,900 -720 Descending FlightAware
07:08PM 40.8290 -90.0100 44° Northeast 432 497 30,400 -1,080 Descending FlightAware
07:09PM 40.8860 -89.9370 44° Northeast 431 496 29,500 -1,500 Descending FlightAware
07:09PM 40.9480 -89.8580 44° Northeast 426 490 28,300 -1,740 Descending FlightAware
07:10PM 40.9970 -89.7960 44° Northeast 426 490 27,300 -1,260 Descending FlightAware
07:11PM 41.0730 -89.6990 44° Northeast 424 488 26,400 -1,680 Descending FlightAware
07:12PM 41.1320 -89.6230 44° Northeast 415 478 24,600 -2,160 Descending FlightAware
07:12PM 41.1830 -89.5320 53° Northeast 403 464 23,400 -1,680 Descending FlightAware
07:13PM 41.2170 -89.4470 62° Northeast 397 457 22,300 -1,740 Descending FlightAware
07:14PM 41.2560 -89.3510 62° Northeast 394 453 21,000 -1,680 Descending FlightAware
07:14PM 41.2900 -89.2650 62° Northeast 395 455 20,000 -540 Descending FlightAware
07:16PM 41.3480 -89.1200 62° Northeast 341 392 20,000  Level FlightAware
07:16PM 41.3820 -89.0360 62° Northeast 319 367 20,000 -300 Level FlightAware
07:17PM 41.4130 -88.9590 62° Northeast 315 362 19,600 -1,320 Descending FlightAware
07:18PM 41.4410 -88.8880 62° Northeast 307 353 18,200 -2,040 Descending FlightAware
07:19PM 41.4690 -88.8180 62° Northeast 299 344 16,800 -2,100 Descending FlightAware
07:19PM 41.4940 -88.7540 62° Northeast 289 333 15,300 -2,220 Descending FlightAware
07:20PM 41.5170 -88.6840 66° East 275 316 13,700 -1,980 Descending FlightAware
07:20PM 41.5050 -88.6440 112° Southeast 269 310 13,000 -1,560 Descending FlightAware
07:21PM 41.4960 -88.6350 143° Southeast 264 304 12,800 -780 Descending FlightAware
07:21PM 41.4790 -88.6270 161° South 258 297 12,700 -180 Descending FlightAware
07:21PM 41.4540 -88.6340 192° South 260 299 12,700  Level FlightAware
07:21PM 41.4390 -88.6520 222° Southwest 263 303 12,700  Level FlightAware
07:22PM 41.4170 -88.7080 242° Southwest 267 307 12,700  Level FlightAware
07:23PM 41.3920 -88.7720 243° Southwest 268 308 12,700  Level FlightAware
07:23PM 41.3680 -88.8320 242° Southwest 269 310 12,700  Level FlightAware
07:24PM 41.3550 -88.8730 247° West 272 313 12,700  Level FlightAware
07:24PM 41.3630 -88.9120 285° West 281 323 12,700  Level FlightAware
07:25PM 41.3770 -88.9290 318° Northwest 283 326 12,700  Level FlightAware
07:25PM 41.3940 -88.9350 345° North 282 325 12,700  Level FlightAware
07:25PM 41.4250 -88.9290 North 284 327 12,700  Level FlightAware
07:26PM 41.4740 -88.9070 19° North 287 330 12,700  Level FlightAware
07:27PM 41.5240 -88.8680 30° Northeast 286 329 12,700 -300 Level FlightAware
07:27PM 41.5560 -88.8400 33° Northeast 285 328 12,400 -1,500 Descending FlightAware
07:28PM 41.5830 -88.7770 60° Northeast 305 351 11,000 -1,200 Descending FlightAware
07:28PM 41.6040 -88.6990 70° East 308 354 10,700 -240 Descending FlightAware
07:29PM 41.6210 -88.6260 73° East 306 352 10,700 -420 Level FlightAware
07:30PM 41.6480 -88.5090 73° East 303 349 9,900 -900 Descending FlightAware
07:31PM 41.6650 -88.4370 72° East 300 345 9,100 -1,380 Descending FlightAware
07:31PM 41.6750 -88.3960 72° East 295 339 8,700 -1,080 Descending FlightAware
07:32PM 41.6830 -88.3730 65° Northeast 297 342 8,400 -1,200 Descending FlightAware
07:32PM 41.7020 -88.3530 38° Northeast 298 343 8,100 -1,200 Descending FlightAware
07:32PM 41.7340 -88.3390 18° North 296 341 7,600 -1,140 Descending FlightAware
07:33PM 41.7720 -88.3230 17° North 294 338 7,100 -900 Descending FlightAware
07:33PM 41.8130 -88.3080 15° North 291 335 6,700 -420 Descending FlightAware
07:34PM 41.8500 -88.2930 17° North 265 305 6,700 -240 Level FlightAware
07:34PM 41.8790 -88.2890 North 247 284 6,500 -1,200 Descending FlightAware
07:35PM 41.9120 -88.2910 357° North 243 280 5,600 -1,860 Descending FlightAware
07:35PM 41.9380 -88.2920 358° North 241 277 4,900 -1,740 Descending FlightAware
07:36PM 41.9670 -88.2670 33° Northeast 229 264 4,000 -1,440 Descending FlightAware
07:36PM 41.9690 -88.2500 81° East 226 260 3,800 -480 Descending FlightAware
07:36PM 41.9680 -88.2120 92° East 216 249 3,700 -120 Descending FlightAware
07:37PM 41.9680 -88.1770 90° East 216 249 3,700 -480 Level FlightAware
07:37PM 41.9680 -88.1370 90° East 214 246 3,300 -960 Descending FlightAware
07:37PM 41.9680 -88.1160 90° East 212 244 3,000 -1,140 Descending FlightAware
07:38PM 41.9690 -88.0820 88° East 194 223 2,500 -1,080 Descending FlightAware
07:38PM 41.9690 -88.0500 90° East 169 194 2,000 -960 Descending FlightAware
07:39PM 41.9690 -88.0260 90° East 155 178 1,700 -720 Descending FlightAware
07:39PM 41.9690 -88.0110 90° East 145 167 1,500 -660 Descending FlightAware
07:40PM 41.9690 -87.9860 90° East 133 153 1,200 -780 Descending FlightAware
07:40PM 41.9690 -87.9620 90° East 135 155 800 -720 Descending FlightAware
07:41PM 41.9690 -87.9270 90° East 137 158 400 -420 Descending FlightAware
07:41PM 41.9690 -87.9090 90° East 137 158 400  Level FlightAware
07:46PM 41.9780 -87.9140 338° Northwest 28 32 -120 Descending FlightAware
07:47PM 41.9790 -87.9160 304° West 16 18  Level FlightAware
07:47PM 41.9800 -87.9180 304° West 15 17  Level FlightAware
07:47PM 41.9810 -87.9180 360° North 31 36  Level FlightAware
07:47PM 41.9820 -87.9190 323° Northwest 29 33  Level FlightAware
07:48PM 41.9820 -87.9200 270° West 30 35  Level FlightAware
07:48PM 41.9800 -87.9190 160° South 17 20  Level FlightAware